Olympia, Washington
Current Conditions -  °F | °C
As of 1:54 AM on Sunday 26 Oct 2014 (Local Time) from KOLM Reporting Station
Broken Clouds Broken Clouds  
Wind Chill:   Ceiling: 7000
Heat Index:   Visibility: 10mi
Dew Point:   Wind: 6mph
Humidity: 90%   Direction: 220°SW
Pressure: 29.87"   Gusts: NA
Location:  47.04°N, 122.89°W
Report Text: KOLM 260854Z AUTO 22005KT 10SM FEW036 SCT049 BKN070 09/08 A2987 RMK AO2 RAB37E47 SLP116 P0000 60000 T00940078 51041
Loading
Personal Weather Stations






























Interactive Weather Map
Tropical Storm Tracking
New forecast layout! Learn more

10-Day Weather Forecast

Advertisements
Track Severe Weather on mobile